sensor_id;sensor_type;location;lat;lon;timestamp;P1;durP1;ratioP1;P2;durP2;ratioP2
46719;SDS011;32452;51.382;-0.002;2023-04-01T00:02:17;24.80;;;13.20;;
46719;SDS011;32452;51.382;-0.002;2023-04-01T00:05:04;26.10;;;11.82;;
46719;SDS011;32452;51.382;-0.002;2023-04-01T00:07:50;24.55;;;12.88;;
46719;SDS011;32452;51.382;-0.002;2023-04-01T00:10:36;21.48;;;10.48;;
46719;SDS011;32452;51.382;-0.002;2023-04-01T00:13:22;23.90;;;10.90;;
46719;SDS011;32452;51.382;-0.002;2023-04-01T00:16:10;23.17;;;11.75;;
46719;SDS011;32452;51.382;-0.002;2023-04-01T00:19:06;19.88;;;9.85;;
46719;SDS011;32452;51.382;-0.002;2023-04-01T00:21:51;19.42;;;11.45;;
46719;SDS011;32452;51.382;-0.002;2023-04-01T00:24:37;22.00;;;9.65;;
46719;SDS011;32452;51.382;-0.002;2023-04-01T00:27:23;19.90;;;9.40;;
46719;SDS011;32452;51.382;-0.002;2023-04-01T00:30:09;16.25;;;8.32;;
46719;SDS011;32452;51.382;-0.002;2023-04-01T00:32:55;19.08;;;9.75;;
46719;SDS011;32452;51.382;-0.002;2023-04-01T00:35:41;19.35;;;10.13;;
46719;SDS011;32452;51.382;-0.002;2023-04-01T00:38:26;20.83;;;10.63;;
46719;SDS011;32452;51.382;-0.002;2023-04-01T00:41:12;19.67;;;10.55;;
46719;SDS011;32452;51.382;-0.002;2023-04-01T00:44:18;22.90;;;10.13;;
46719;SDS011;32452;51.382;-0.002;2023-04-01T00:47:04;18.40;;;10.10;;
46719;SDS011;32452;51.382;-0.002;2023-04-01T00:49:50;20.42;;;10.10;;
46719;SDS011;32452;51.382;-0.002;2023-04-01T00:52:37;19.17;;;10.95;;
46719;SDS011;32452;51.382;-0.002;2023-04-01T00:55:22;18.88;;;10.23;;
46719;SDS011;32452;51.382;-0.002;2023-04-01T00:58:11;18.65;;;10.57;;
46719;SDS011;32452;51.382;-0.002;2023-04-01T01:01:00;19.08;;;10.20;;
46719;SDS011;32452;51.382;-0.002;2023-04-01T01:03:46;18.35;;;10.15;;
46719;SDS011;32452;51.382;-0.002;2023-04-01T01:06:38;17.95;;;10.48;;
46719;SDS011;32452;51.382;-0.002;2023-04-01T01:09:30;17.83;;;9.65;;
46719;SDS011;32452;51.382;-0.002;2023-04-01T01:37:05;17.67;;;9.02;;
46719;SDS011;32452;51.382;-0.002;2023-04-01T01:39:59;17.85;;;9.10;;
46719;SDS011;32452;51.382;-0.002;2023-04-01T01:42:51;16.52;;;9.77;;
46719;SDS011;32452;51.382;-0.002;2023-04-01T01:45:43;18.67;;;9.60;;
46719;SDS011;32452;51.382;-0.002;2023-04-01T01:48:32;17.58;;;10.35;;
46719;SDS011;32452;51.382;-0.002;2023-04-01T01:51:19;14.60;;;8.32;;
46719;SDS011;32452;51.382;-0.002;2023-04-01T01:54:06;14.75;;;8.13;;
46719;SDS011;32452;51.382;-0.002;2023-04-01T01:56:59;14.02;;;6.20;;
46719;SDS011;32452;51.382;-0.002;2023-04-01T01:59:52;10.75;;;5.10;;
46719;SDS011;32452;51.382;-0.002;2023-04-01T02:02:41;10.25;;;4.97;;
46719;SDS011;32452;51.382;-0.002;2023-04-01T02:05:30;9.93;;;4.95;;
46719;SDS011;32452;51.382;-0.002;2023-04-01T02:11:56;8.70;;;3.67;;
46719;SDS011;32452;51.382;-0.002;2023-04-01T02:17:51;9.05;;;4.50;;
46719;SDS011;32452;51.382;-0.002;2023-04-01T02:20:37;10.25;;;4.63;;
46719;SDS011;32452;51.382;-0.002;2023-04-01T02:23:24;8.73;;;4.20;;
46719;SDS011;32452;51.382;-0.002;2023-04-01T02:26:11;9.15;;;3.83;;
46719;SDS011;32452;51.382;-0.002;2023-04-01T02:28:59;10.02;;;5.28;;
46719;SDS011;32452;51.382;-0.002;2023-04-01T02:31:47;8.88;;;3.92;;
46719;SDS011;32452;51.382;-0.002;2023-04-01T02:34:34;10.98;;;4.70;;
46719;SDS011;32452;51.382;-0.002;2023-04-01T02:37:20;9.73;;;4.82;;
46719;SDS011;32452;51.382;-0.002;2023-04-01T02:40:06;9.73;;;4.93;;
46719;SDS011;32452;51.382;-0.002;2023-04-01T02:42:53;11.50;;;4.78;;
46719;SDS011;32452;51.382;-0.002;2023-04-01T02:45:38;9.65;;;4.95;;
46719;SDS011;32452;51.382;-0.002;2023-04-01T02:48:24;13.15;;;4.80;;
46719;SDS011;32452;51.382;-0.002;2023-04-01T02:51:09;9.95;;;4.70;;
46719;SDS011;32452;51.382;-0.002;2023-04-01T02:53:55;8.40;;;4.18;;
46719;SDS011;32452;51.382;-0.002;2023-04-01T02:56:41;9.50;;;4.50;;
46719;SDS011;32452;51.382;-0.002;2023-04-01T02:59:26;8.57;;;3.80;;
46719;SDS011;32452;51.382;-0.002;2023-04-01T03:02:12;10.45;;;4.95;;
46719;SDS011;32452;51.382;-0.002;2023-04-01T03:04:58;8.15;;;3.60;;
46719;SDS011;32452;51.382;-0.002;2023-04-01T03:07:43;7.03;;;3.72;;
46719;SDS011;32452;51.382;-0.002;2023-04-01T03:10:29;10.68;;;4.78;;
46719;SDS011;32452;51.382;-0.002;2023-04-01T03:13:15;7.22;;;3.42;;
46719;SDS011;32452;51.382;-0.002;2023-04-01T03:16:00;7.55;;;3.70;;
46719;SDS011;32452;51.382;-0.002;2023-04-01T03:18:46;6.63;;;3.25;;
46719;SDS011;32452;51.382;-0.002;2023-04-01T03:21:34;6.65;;;3.13;;
46719;SDS011;32452;51.382;-0.002;2023-04-01T03:24:20;4.18;;;2.40;;
46719;SDS011;32452;51.382;-0.002;2023-04-01T03:27:06;7.53;;;3.00;;
46719;SDS011;32452;51.382;-0.002;2023-04-01T03:29:51;5.55;;;2.53;;
46719;SDS011;32452;51.382;-0.002;2023-04-01T03:32:37;7.25;;;3.03;;
46719;SDS011;32452;51.382;-0.002;2023-04-01T03:35:23;4.82;;;2.40;;
46719;SDS011;32452;51.382;-0.002;2023-04-01T03:38:08;4.28;;;2.53;;
46719;SDS011;32452;51.382;-0.002;2023-04-01T03:40:54;5.00;;;2.65;;
46719;SDS011;32452;51.382;-0.002;2023-04-01T03:43:39;4.82;;;2.45;;
46719;SDS011;32452;51.382;-0.002;2023-04-01T03:46:25;4.30;;;2.40;;
46719;SDS011;32452;51.382;-0.002;2023-04-01T03:49:10;6.18;;;2.70;;
46719;SDS011;32452;51.382;-0.002;2023-04-01T03:51:56;6.50;;;2.88;;
46719;SDS011;32452;51.382;-0.002;2023-04-01T03:54:42;5.65;;;3.45;;
46719;SDS011;32452;51.382;-0.002;2023-04-01T03:57:30;6.70;;;3.70;;
46719;SDS011;32452;51.382;-0.002;2023-04-01T04:00:16;5.65;;;2.80;;
46719;SDS011;32452;51.382;-0.002;2023-04-01T04:03:02;8.23;;;2.80;;
46719;SDS011;32452;51.382;-0.002;2023-04-01T04:05:48;5.82;;;2.85;;
46719;SDS011;32452;51.382;-0.002;2023-04-01T04:08:35;4.22;;;2.55;;
46719;SDS011;32452;51.382;-0.002;2023-04-01T04:11:21;6.38;;;2.63;;
46719;SDS011;32452;51.382;-0.002;2023-04-01T04:14:07;5.30;;;2.30;;
46719;SDS011;32452;51.382;-0.002;2023-04-01T04:16:52;6.32;;;3.03;;
46719;SDS011;32452;51.382;-0.002;2023-04-01T04:19:38;4.70;;;2.40;;
46719;SDS011;32452;51.382;-0.002;2023-04-01T04:22:23;5.38;;;2.78;;
46719;SDS011;32452;51.382;-0.002;2023-04-01T04:25:09;9.40;;;2.83;;
46719;SDS011;32452;51.382;-0.002;2023-04-01T04:27:54;5.80;;;2.47;;
46719;SDS011;32452;51.382;-0.002;2023-04-01T04:30:40;5.05;;;2.47;;
46719;SDS011;32452;51.382;-0.002;2023-04-01T04:33:26;3.88;;;2.10;;
46719;SDS011;32452;51.382;-0.002;2023-04-01T04:36:11;4.80;;;2.50;;
46719;SDS011;32452;51.382;-0.002;2023-04-01T04:38:57;3.38;;;1.80;;
46719;SDS011;32452;51.382;-0.002;2023-04-01T04:41:47;4.38;;;2.08;;
46719;SDS011;32452;51.382;-0.002;2023-04-01T04:44:33;3.20;;;1.67;;
46719;SDS011;32452;51.382;-0.002;2023-04-01T04:47:18;4.72;;;2.20;;
46719;SDS011;32452;51.382;-0.002;2023-04-01T04:50:04;3.33;;;1.80;;
46719;SDS011;32452;51.382;-0.002;2023-04-01T04:52:50;3.25;;;2.10;;
46719;SDS011;32452;51.382;-0.002;2023-04-01T04:55:36;3.10;;;1.65;;
46719;SDS011;32452;51.382;-0.002;2023-04-01T04:58:21;4.00;;;2.17;;
46719;SDS011;32452;51.382;-0.002;2023-04-01T05:01:08;6.38;;;2.35;;
46719;SDS011;32452;51.382;-0.002;2023-04-01T05:03:56;5.10;;;2.30;;
46719;SDS011;32452;51.382;-0.002;2023-04-01T05:06:42;3.65;;;2.15;;
46719;SDS011;32452;51.382;-0.002;2023-04-01T05:09:30;4.53;;;2.20;;
46719;SDS011;32452;51.382;-0.002;2023-04-01T05:12:16;4.72;;;2.45;;
46719;SDS011;32452;51.382;-0.002;2023-04-01T05:15:02;3.75;;;2.22;;
46719;SDS011;32452;51.382;-0.002;2023-04-01T05:17:49;5.38;;;2.33;;
46719;SDS011;32452;51.382;-0.002;2023-04-01T05:20:35;4.53;;;2.38;;
46719;SDS011;32452;51.382;-0.002;2023-04-01T05:23:21;4.97;;;2.22;;
46719;SDS011;32452;51.382;-0.002;2023-04-01T05:26:08;4.88;;;2.38;;
46719;SDS011;32452;51.382;-0.002;2023-04-01T05:28:55;4.15;;;2.00;;
46719;SDS011;32452;51.382;-0.002;2023-04-01T05:31:41;4.72;;;2.08;;
46719;SDS011;32452;51.382;-0.002;2023-04-01T05:34:26;5.07;;;2.60;;
46719;SDS011;32452;51.382;-0.002;2023-04-01T05:37:12;3.60;;;1.98;;
46719;SDS011;32452;51.382;-0.002;2023-04-01T05:39:58;4.15;;;2.08;;
46719;SDS011;32452;51.382;-0.002;2023-04-01T05:42:43;3.85;;;2.13;;
46719;SDS011;32452;51.382;-0.002;2023-04-01T05:45:29;4.78;;;2.28;;
46719;SDS011;32452;51.382;-0.002;2023-04-01T05:48:15;7.15;;;2.75;;
46719;SDS011;32452;51.382;-0.002;2023-04-01T05:51:02;5.28;;;2.25;;
46719;SDS011;32452;51.382;-0.002;2023-04-01T05:53:48;3.78;;;2.33;;
46719;SDS011;32452;51.382;-0.002;2023-04-01T05:56:34;5.13;;;2.25;;
46719;SDS011;32452;51.382;-0.002;2023-04-01T05:59:20;4.53;;;2.53;;
46719;SDS011;32452;51.382;-0.002;2023-04-01T06:02:06;5.80;;;2.72;;
46719;SDS011;32452;51.382;-0.002;2023-04-01T06:04:54;7.13;;;3.08;;
46719;SDS011;32452;51.382;-0.002;2023-04-01T06:08:02;5.97;;;2.92;;
46719;SDS011;32452;51.382;-0.002;2023-04-01T06:11:01;6.57;;;3.20;;
46719;SDS011;32452;51.382;-0.002;2023-04-01T06:14:13;6.72;;;3.30;;
46719;SDS011;32452;51.382;-0.002;2023-04-01T06:29:00;6.30;;;3.22;;
46719;SDS011;32452;51.382;-0.002;2023-04-01T06:35:29;7.40;;;3.45;;
46719;SDS011;32452;51.382;-0.002;2023-04-01T06:38:43;10.50;;;3.80;;
46719;SDS011;32452;51.382;-0.002;2023-04-01T06:47:46;7.85;;;3.60;;
46719;SDS011;32452;51.382;-0.002;2023-04-01T06:57:02;7.57;;;3.83;;
46719;SDS011;32452;51.382;-0.002;2023-04-01T07:00:05;11.27;;;4.10;;
46719;SDS011;32452;51.382;-0.002;2023-04-01T07:03:31;7.90;;;3.83;;
46719;SDS011;32452;51.382;-0.002;2023-04-01T07:09:25;8.00;;;3.83;;
46719;SDS011;32452;51.382;-0.002;2023-04-01T07:12:25;8.38;;;3.70;;
46719;SDS011;32452;51.382;-0.002;2023-04-01T07:15:24;8.05;;;3.80;;
46719;SDS011;32452;51.382;-0.002;2023-04-01T07:18:21;9.60;;;4.32;;
46719;SDS011;32452;51.382;-0.002;2023-04-01T07:21:26;8.60;;;4.40;;
46719;SDS011;32452;51.382;-0.002;2023-04-01T07:24:33;9.88;;;4.53;;
46719;SDS011;32452;51.382;-0.002;2023-04-01T07:27:22;10.63;;;4.13;;
46719;SDS011;32452;51.382;-0.002;2023-04-01T07:30:15;8.45;;;3.78;;
46719;SDS011;32452;51.382;-0.002;2023-04-01T07:36:13;10.23;;;4.28;;
46719;SDS011;32452;51.382;-0.002;2023-04-01T07:39:58;10.80;;;4.07;;
46719;SDS011;32452;51.382;-0.002;2023-04-01T07:49:30;9.60;;;4.88;;
46719;SDS011;32452;51.382;-0.002;2023-04-01T07:52:08;8.77;;;4.18;;
46719;SDS011;32452;51.382;-0.002;2023-04-01T07:55:08;9.23;;;4.20;;
46719;SDS011;32452;51.382;-0.002;2023-04-01T07:58:16;7.78;;;3.80;;
46719;SDS011;32452;51.382;-0.002;2023-04-01T08:01:37;9.67;;;3.50;;
46719;SDS011;32452;51.382;-0.002;2023-04-01T08:04:39;7.88;;;3.30;;
46719;SDS011;32452;51.382;-0.002;2023-04-01T08:13:46;10.30;;;4.93;;
46719;SDS011;32452;51.382;-0.002;2023-04-01T08:23:05;10.90;;;5.20;;
46719;SDS011;32452;51.382;-0.002;2023-04-01T08:31:40;12.73;;;5.15;;
46719;SDS011;32452;51.382;-0.002;2023-04-01T08:34:51;12.20;;;5.70;;
46719;SDS011;32452;51.382;-0.002;2023-04-01T08:37:51;14.05;;;6.28;;
46719;SDS011;32452;51.382;-0.002;2023-04-01T08:50:35;17.83;;;6.25;;
46719;SDS011;32452;51.382;-0.002;2023-04-01T09:00:11;16.13;;;7.35;;
46719;SDS011;32452;51.382;-0.002;2023-04-01T09:16:07;11.27;;;5.15;;
46719;SDS011;32452;51.382;-0.002;2023-04-01T09:19:21;11.35;;;4.80;;
46719;SDS011;32452;51.382;-0.002;2023-04-01T09:31:44;10.50;;;4.13;;
46719;SDS011;32452;51.382;-0.002;2023-04-01T09:35:04;10.02;;;4.45;;
46719;SDS011;32452;51.382;-0.002;2023-04-01T09:40:55;9.68;;;4.28;;
46719;SDS011;32452;51.382;-0.002;2023-04-01T09:43:58;9.02;;;4.18;;
46719;SDS011;32452;51.382;-0.002;2023-04-01T09:46:52;10.15;;;4.20;;
46719;SDS011;32452;51.382;-0.002;2023-04-01T09:49:57;12.32;;;4.55;;
46719;SDS011;32452;51.382;-0.002;2023-04-01T10:02:42;11.50;;;4.20;;
46719;SDS011;32452;51.382;-0.002;2023-04-01T10:09:14;11.75;;;4.03;;
46719;SDS011;32452;51.382;-0.002;2023-04-01T10:33:49;6.30;;;2.35;;
46719;SDS011;32452;51.382;-0.002;2023-04-01T10:40:25;6.53;;;2.67;;
46719;SDS011;32452;51.382;-0.002;2023-04-01T10:47:19;7.53;;;3.28;;
46719;SDS011;32452;51.382;-0.002;2023-04-01T11:02:53;8.77;;;3.30;;
46719;SDS011;32452;51.382;-0.002;2023-04-01T11:09:08;8.45;;;3.53;;
46719;SDS011;32452;51.382;-0.002;2023-04-01T11:22:15;11.82;;;4.53;;
46719;SDS011;32452;51.382;-0.002;2023-04-01T11:31:34;11.10;;;4.72;;
46719;SDS011;32452;51.382;-0.002;2023-04-01T11:53:15;12.85;;;4.57;;
46719;SDS011;32452;51.382;-0.002;2023-04-01T12:08:35;9.70;;;4.13;;
46719;SDS011;32452;51.382;-0.002;2023-04-01T12:14:37;12.85;;;4.38;;
46719;SDS011;32452;51.382;-0.002;2023-04-01T12:17:53;8.57;;;4.00;;
46719;SDS011;32452;51.382;-0.002;2023-04-01T12:21:00;13.05;;;3.80;;
46719;SDS011;32452;51.382;-0.002;2023-04-01T12:30:49;6.88;;;2.90;;
46719;SDS011;32452;51.382;-0.002;2023-04-01T12:45:34;9.20;;;3.13;;
46719;SDS011;32452;51.382;-0.002;2023-04-01T12:58:15;8.32;;;3.17;;
46719;SDS011;32452;51.382;-0.002;2023-04-01T13:01:25;13.15;;;4.82;;
46719;SDS011;32452;51.382;-0.002;2023-04-01T13:17:20;8.63;;;2.40;;
46719;SDS011;32452;51.382;-0.002;2023-04-01T13:29:33;8.48;;;2.40;;
46719;SDS011;32452;51.382;-0.002;2023-04-01T13:32:28;7.00;;;2.85;;
46719;SDS011;32452;51.382;-0.002;2023-04-01T13:44:47;7.07;;;2.47;;
46719;SDS011;32452;51.382;-0.002;2023-04-01T14:06:53;5.68;;;1.92;;
46719;SDS011;32452;51.382;-0.002;2023-04-01T14:35:10;6.85;;;1.98;;
46719;SDS011;32452;51.382;-0.002;2023-04-01T14:38:22;7.53;;;1.65;;
46719;SDS011;32452;51.382;-0.002;2023-04-01T14:44:05;5.45;;;2.05;;
46719;SDS011;32452;51.382;-0.002;2023-04-01T14:50:02;4.75;;;2.13;;
46719;SDS011;32452;51.382;-0.002;2023-04-01T14:56:14;5.97;;;2.05;;
46719;SDS011;32452;51.382;-0.002;2023-04-01T15:02:15;9.48;;;2.92;;
46719;SDS011;32452;51.382;-0.002;2023-04-01T15:08:29;9.60;;;3.20;;
46719;SDS011;32452;51.382;-0.002;2023-04-01T15:11:21;7.72;;;3.15;;
46719;SDS011;32452;51.382;-0.002;2023-04-01T15:14:23;7.82;;;3.28;;
46719;SDS011;32452;51.382;-0.002;2023-04-01T15:26:12;8.15;;;3.67;;
46719;SDS011;32452;51.382;-0.002;2023-04-01T15:29:46;8.98;;;3.70;;
46719;SDS011;32452;51.382;-0.002;2023-04-01T15:44:55;10.80;;;3.53;;
46719;SDS011;32452;51.382;-0.002;2023-04-01T15:47:58;10.32;;;4.00;;
46719;SDS011;32452;51.382;-0.002;2023-04-01T16:03:07;8.95;;;4.22;;
46719;SDS011;32452;51.382;-0.002;2023-04-01T16:18:52;8.48;;;3.95;;
46719;SDS011;32452;51.382;-0.002;2023-04-01T16:22:07;13.05;;;3.92;;
46719;SDS011;32452;51.382;-0.002;2023-04-01T16:25:07;9.52;;;4.80;;
46719;SDS011;32452;51.382;-0.002;2023-04-01T16:30:58;12.45;;;4.97;;
46719;SDS011;32452;51.382;-0.002;2023-04-01T16:33:52;10.25;;;4.75;;
46719;SDS011;32452;51.382;-0.002;2023-04-01T16:45:36;12.75;;;4.20;;
46719;SDS011;32452;51.382;-0.002;2023-04-01T16:52:13;10.48;;;3.95;;
46719;SDS011;32452;51.382;-0.002;2023-04-01T16:55:03;8.68;;;3.83;;
46719;SDS011;32452;51.382;-0.002;2023-04-01T16:58:00;11.45;;;4.75;;
46719;SDS011;32452;51.382;-0.002;2023-04-01T17:00:50;11.32;;;4.50;;
46719;SDS011;32452;51.382;-0.002;2023-04-01T17:03:46;9.80;;;4.72;;
46719;SDS011;32452;51.382;-0.002;2023-04-01T17:12:37;10.20;;;5.18;;
46719;SDS011;32452;51.382;-0.002;2023-04-01T17:18:57;7.38;;;3.30;;
46719;SDS011;32452;51.382;-0.002;2023-04-01T17:21:57;9.38;;;3.55;;
46719;SDS011;32452;51.382;-0.002;2023-04-01T17:27:51;8.45;;;4.20;;
46719;SDS011;32452;51.382;-0.002;2023-04-01T17:33:46;8.30;;;3.65;;
46719;SDS011;32452;51.382;-0.002;2023-04-01T17:37:09;7.68;;;3.10;;
46719;SDS011;32452;51.382;-0.002;2023-04-01T17:40:21;8.52;;;3.20;;
46719;SDS011;32452;51.382;-0.002;2023-04-01T17:43:27;11.30;;;3.25;;
46719;SDS011;32452;51.382;-0.002;2023-04-01T17:49:29;9.07;;;3.35;;
46719;SDS011;32452;51.382;-0.002;2023-04-01T17:52:23;8.98;;;3.13;;
46719;SDS011;32452;51.382;-0.002;2023-04-01T18:04:35;15.27;;;3.42;;
46719;SDS011;32452;51.382;-0.002;2023-04-01T18:07:52;9.30;;;3.22;;
46719;SDS011;32452;51.382;-0.002;2023-04-01T18:11:00;11.55;;;3.70;;
46719;SDS011;32452;51.382;-0.002;2023-04-01T18:20:00;9.70;;;3.83;;
46719;SDS011;32452;51.382;-0.002;2023-04-01T18:26:19;10.63;;;3.38;;
46719;SDS011;32452;51.382;-0.002;2023-04-01T18:32:10;7.22;;;3.47;;
46719;SDS011;32452;51.382;-0.002;2023-04-01T18:35:17;9.82;;;3.38;;
46719;SDS011;32452;51.382;-0.002;2023-04-01T18:38:12;9.32;;;2.85;;
46719;SDS011;32452;51.382;-0.002;2023-04-01T18:44:11;9.27;;;3.47;;
46719;SDS011;32452;51.382;-0.002;2023-04-01T18:50:26;9.65;;;3.03;;
46719;SDS011;32452;51.382;-0.002;2023-04-01T18:53:24;5.68;;;2.42;;
46719;SDS011;32452;51.382;-0.002;2023-04-01T18:56:26;6.82;;;3.50;;
46719;SDS011;32452;51.382;-0.002;2023-04-01T18:59:25;5.38;;;3.00;;
46719;SDS011;32452;51.382;-0.002;2023-04-01T19:02:43;7.65;;;3.13;;
46719;SDS011;32452;51.382;-0.002;2023-04-01T19:05:36;8.93;;;3.10;;
46719;SDS011;32452;51.382;-0.002;2023-04-01T19:08:33;8.13;;;3.38;;
46719;SDS011;32452;51.382;-0.002;2023-04-01T19:15:10;8.43;;;3.30;;
46719;SDS011;32452;51.382;-0.002;2023-04-01T19:21:13;8.23;;;3.58;;
46719;SDS011;32452;51.382;-0.002;2023-04-01T19:27:18;9.68;;;2.97;;
46719;SDS011;32452;51.382;-0.002;2023-04-01T19:30:19;5.57;;;2.88;;
46719;SDS011;32452;51.382;-0.002;2023-04-01T19:36:45;6.40;;;2.70;;
46719;SDS011;32452;51.382;-0.002;2023-04-01T19:45:32;6.68;;;3.00;;
46719;SDS011;32452;51.382;-0.002;2023-04-01T19:51:45;6.35;;;2.30;;
46719;SDS011;32452;51.382;-0.002;2023-04-01T19:54:45;10.65;;;2.85;;
46719;SDS011;32452;51.382;-0.002;2023-04-01T20:00:58;4.80;;;2.28;;
46719;SDS011;32452;51.382;-0.002;2023-04-01T20:09:31;8.27;;;3.50;;
46719;SDS011;32452;51.382;-0.002;2023-04-01T20:18:39;5.85;;;2.38;;
46719;SDS011;32452;51.382;-0.002;2023-04-01T20:21:45;6.13;;;2.50;;
46719;SDS011;32452;51.382;-0.002;2023-04-01T20:24:43;4.68;;;2.28;;
46719;SDS011;32452;51.382;-0.002;2023-04-01T20:27:38;12.48;;;2.83;;
46719;SDS011;32452;51.382;-0.002;2023-04-01T20:46:56;6.13;;;2.38;;
46719;SDS011;32452;51.382;-0.002;2023-04-01T20:50:01;9.07;;;2.28;;
46719;SDS011;32452;51.382;-0.002;2023-04-01T20:53:16;6.63;;;1.85;;
46719;SDS011;32452;51.382;-0.002;2023-04-01T20:56:28;4.43;;;1.75;;
46719;SDS011;32452;51.382;-0.002;2023-04-01T20:59:20;6.88;;;1.75;;
46719;SDS011;32452;51.382;-0.002;2023-04-01T21:08:12;4.75;;;2.10;;
46719;SDS011;32452;51.382;-0.002;2023-04-01T21:11:09;5.63;;;1.58;;
46719;SDS011;32452;51.382;-0.002;2023-04-01T21:27:07;4.90;;;1.67;;
46719;SDS011;32452;51.382;-0.002;2023-04-01T21:55:54;4.00;;;1.20;;
46719;SDS011;32452;51.382;-0.002;2023-04-01T22:05:22;4.50;;;1.77;;
46719;SDS011;32452;51.382;-0.002;2023-04-01T22:11:45;4.53;;;1.52;;
46719;SDS011;32452;51.382;-0.002;2023-04-01T22:17:31;8.18;;;1.80;;
46719;SDS011;32452;51.382;-0.002;2023-04-01T22:23:59;6.53;;;1.75;;
46719;SDS011;32452;51.382;-0.002;2023-04-01T22:33:11;7.45;;;1.75;;
46719;SDS011;32452;51.382;-0.002;2023-04-01T22:48:47;4.10;;;1.30;;
46719;SDS011;32452;51.382;-0.002;2023-04-01T22:51:57;5.38;;;1.58;;
46719;SDS011;32452;51.382;-0.002;2023-04-01T22:54:48;5.53;;;1.50;;
46719;SDS011;32452;51.382;-0.002;2023-04-01T22:58:13;2.00;;;1.05;;
46719;SDS011;32452;51.382;-0.002;2023-04-01T23:01:16;4.53;;;1.60;;
46719;SDS011;32452;51.382;-0.002;2023-04-01T23:04:08;3.17;;;1.30;;
46719;SDS011;32452;51.382;-0.002;2023-04-01T23:06:58;1.98;;;0.93;;
46719;SDS011;32452;51.382;-0.002;2023-04-01T23:09:52;2.80;;;1.25;;
46719;SDS011;32452;51.382;-0.002;2023-04-01T23:12:40;2.95;;;1.13;;
46719;SDS011;32452;51.382;-0.002;2023-04-01T23:15:27;2.47;;;1.20;;
46719;SDS011;32452;51.382;-0.002;2023-04-01T23:21:18;2.58;;;1.20;;
46719;SDS011;32452;51.382;-0.002;2023-04-01T23:24:21;3.15;;;1.52;;
46719;SDS011;32452;51.382;-0.002;2023-04-01T23:27:20;3.63;;;1.45;;
46719;SDS011;32452;51.382;-0.002;2023-04-01T23:31:01;9.32;;;1.70;;
46719;SDS011;32452;51.382;-0.002;2023-04-01T23:33:28;4.15;;;1.60;;
46719;SDS011;32452;51.382;-0.002;2023-04-01T23:36:16;3.58;;;1.40;;
46719;SDS011;32452;51.382;-0.002;2023-04-01T23:39:04;4.25;;;1.50;;
46719;SDS011;32452;51.382;-0.002;2023-04-01T23:42:07;3.20;;;1.77;;
46719;SDS011;32452;51.382;-0.002;2023-04-01T23:45:05;3.95;;;1.45;;
46719;SDS011;32452;51.382;-0.002;2023-04-01T23:47:59;4.10;;;1.67;;
46719;SDS011;32452;51.382;-0.002;2023-04-01T23:50:46;3.88;;;1.88;;
46719;SDS011;32452;51.382;-0.002;2023-04-01T23:53:34;7.57;;;1.77;;
46719;SDS011;32452;51.382;-0.002;2023-04-01T23:56:20;4.55;;;1.80;;
46719;SDS011;32452;51.382;-0.002;2023-04-01T23:59:09;3.92;;;1.90;;
